createdAt,value
2023-03-06T00:01:50.681Z,96346.50
2023-03-06T00:04:37.505Z,96348.28
2023-03-06T00:07:24.328Z,96338.75
2023-03-06T00:10:14.804Z,96339.56
2023-03-06T00:13:04.529Z,96346.50
2023-03-06T00:15:51.413Z,96339.75
2023-03-06T00:18:38.332Z,96332.00
2023-03-06T00:21:25.092Z,96327.59
2023-03-06T00:24:11.906Z,96328.56
2023-03-06T00:26:58.729Z,96323.47
2023-03-06T00:29:45.561Z,96328.72
2023-03-06T00:32:32.453Z,96333.00
2023-03-06T00:35:19.365Z,96322.66
2023-03-06T00:38:06.232Z,96318.38
2023-03-06T00:40:53.039Z,96313.97
2023-03-06T00:43:39.868Z,96308.03
2023-03-06T00:46:26.661Z,96315.09
2023-03-06T00:49:13.436Z,96307.34
2023-03-06T00:52:00.328Z,96301.28
2023-03-06T00:54:47.118Z,96299.63
2023-03-06T00:57:33.933Z,96302.25
2023-03-06T01:00:20.955Z,96299.81
2023-03-06T01:03:07.891Z,96297.19
2023-03-06T01:05:54.704Z,96285.19
2023-03-06T01:08:41.517Z,96289.44
2023-03-06T01:11:28.289Z,96276.47
2023-03-06T01:14:15.039Z,96284.19
2023-03-06T01:17:01.871Z,96271.38
2023-03-06T01:19:48.819Z,96273.03
2023-03-06T01:22:35.619Z,96274.00
2023-03-06T01:25:24.775Z,96267.94
2023-03-06T01:28:11.546Z,96264.66
2023-03-06T01:30:58.316Z,96263.00
2023-03-06T01:33:45.185Z,96252.66
2023-03-06T01:36:32.007Z,96257.75
2023-03-06T01:39:18.767Z,96251.84
2023-03-06T01:42:05.622Z,96251.84
2023-03-06T01:45:03.873Z,96252.84
2023-03-06T01:47:50.731Z,96251.16
2023-03-06T01:50:37.592Z,96238.19
2023-03-06T01:53:24.512Z,96239.84
2023-03-06T01:56:12.805Z,96244.28
2023-03-06T01:58:59.774Z,96234.75
2023-03-06T02:01:47.128Z,96229.50
2023-03-06T02:04:34.286Z,96226.06
2023-03-06T02:07:21.426Z,96225.22
2023-03-06T02:10:09.229Z,96215.69
2023-03-06T02:12:56.151Z,96220.94
2023-03-06T02:15:43.003Z,96220.31
2023-03-06T02:18:30.416Z,96204.69
2023-03-06T02:21:24.569Z,96203.69
2023-03-06T02:24:47.146Z,96211.56
2023-03-06T02:27:33.942Z,96204.56
2023-03-06T02:30:22.236Z,96203.88
2023-03-06T02:33:15.021Z,96208.31
2023-03-06T02:36:05.247Z,96194.38
2023-03-06T02:38:52.432Z,96188.28
2023-03-06T02:41:39.298Z,96187.63
2023-03-06T02:44:26.567Z,96180.56
2023-03-06T02:47:13.438Z,96178.75
2023-03-06T02:50:00.222Z,96180.56
2023-03-06T02:52:47.186Z,96185.00
2023-03-06T02:55:34.356Z,96178.09
2023-03-06T02:58:21.232Z,96175.47
2023-03-06T03:01:08.463Z,96174.81
2023-03-06T03:03:55.284Z,96174.00
2023-03-06T03:06:42.103Z,96171.38
2023-03-06T03:09:28.891Z,96175.81
2023-03-06T03:12:15.728Z,96175.13
2023-03-06T03:15:02.590Z,96161.19
2023-03-06T03:17:49.407Z,96163.81
2023-03-06T03:20:36.196Z,96161.19
2023-03-06T03:23:23.740Z,96161.34
2023-03-06T03:26:17.033Z,96152.66
2023-03-06T03:29:05.072Z,96157.91
2023-03-06T03:31:51.848Z,96147.56
2023-03-06T03:34:38.608Z,96151.81
2023-03-06T03:37:25.393Z,96140.81
2023-03-06T03:40:12.656Z,96137.22
2023-03-06T03:42:59.777Z,96139.03
2023-03-06T03:45:46.603Z,96128.69
2023-03-06T03:48:33.337Z,96126.03
2023-03-06T03:51:20.226Z,96120.97
2023-03-06T03:54:07.083Z,96119.16
2023-03-06T03:56:53.949Z,96112.41
2023-03-06T03:59:40.825Z,96118.34
2023-03-06T04:02:27.647Z,96119.34
2023-03-06T04:05:15.865Z,96113.25
2023-03-06T04:08:03.191Z,96107.16
2023-03-06T04:10:52.441Z,96106.53
2023-03-06T04:13:39.139Z,96108.16
2023-03-06T04:16:26.042Z,96106.84
2023-03-06T04:19:12.813Z,96109.47
2023-03-06T04:21:59.603Z,96102.41
2023-03-06T04:24:49.582Z,96106.16
2023-03-06T04:27:36.349Z,96097.47
2023-03-06T04:30:24.667Z,96100.94
2023-03-06T04:33:11.783Z,96100.09
2023-03-06T04:35:58.627Z,96091.41
2023-03-06T04:38:45.410Z,96091.59
2023-03-06T04:41:32.243Z,96086.34
2023-03-06T04:44:19.244Z,96082.88
2023-03-06T04:47:06.325Z,96075.84
2023-03-06T04:49:53.125Z,96082.88
2023-03-06T04:52:42.810Z,96070.59
2023-03-06T04:55:31.080Z,96069.91
2023-03-06T04:58:17.876Z,96070.75
2023-03-06T05:01:04.772Z,96065.50
2023-03-06T05:03:51.635Z,96056.78
2023-03-06T05:06:38.393Z,96049.09
2023-03-06T05:09:25.175Z,96054.34
2023-03-06T05:12:11.970Z,96053.50
2023-03-06T05:14:58.757Z,96057.94
2023-03-06T05:17:46.475Z,96046.78
2023-03-06T05:20:33.731Z,96052.84
2023-03-06T05:23:20.602Z,96053.69
2023-03-06T05:26:09.603Z,96048.44
2023-03-06T05:28:56.393Z,96044.97
2023-03-06T05:31:43.259Z,96041.53
2023-03-06T05:34:30.039Z,96041.69
2023-03-06T05:37:18.337Z,96042.69
2023-03-06T05:40:06.724Z,96038.25
2023-03-06T05:42:53.500Z,96030.56
2023-03-06T05:45:40.862Z,96034.81
2023-03-06T05:48:27.658Z,96040.06
2023-03-06T05:51:14.543Z,96040.06
2023-03-06T05:54:03.637Z,96046.28
2023-03-06T05:56:51.319Z,96046.44
2023-03-06T05:59:40.566Z,96048.25
2023-03-06T06:02:27.476Z,96051.69
2023-03-06T06:05:14.544Z,96051.06
2023-03-06T06:08:02.535Z,96045.13
2023-03-06T06:10:51.453Z,96040.69
2023-03-06T06:13:40.100Z,96051.88
2023-03-06T06:16:26.864Z,96051.19
2023-03-06T06:19:20.311Z,96068.91
2023-03-06T06:22:07.337Z,96054.81
2023-03-06T06:24:54.201Z,96056.63
2023-03-06T06:27:41.041Z,96055.81
2023-03-06T06:30:27.851Z,96057.75
2023-03-06T06:33:14.681Z,96062.00
2023-03-06T06:36:01.521Z,96055.13
2023-03-06T06:38:48.956Z,96048.25
2023-03-06T06:41:54.798Z,96046.44
2023-03-06T06:44:43.495Z,96046.25
2023-03-06T06:47:30.332Z,96043.00
2023-03-06T06:50:17.154Z,96048.06
2023-03-06T06:53:04.218Z,96050.88
2023-03-06T06:55:51.443Z,96046.44
2023-03-06T06:58:42.144Z,96045.78
2023-03-06T07:01:29.267Z,96040.53
2023-03-06T07:04:16.726Z,96044.00
2023-03-06T07:07:03.609Z,96042.50
2023-03-06T07:09:50.414Z,96042.50
2023-03-06T07:12:37.409Z,96046.75
2023-03-06T07:15:30.818Z,96044.31
2023-03-06T07:18:17.595Z,96044.31
2023-03-06T07:21:04.989Z,96050.38
2023-03-06T07:23:51.834Z,96040.06
2023-03-06T07:26:38.644Z,96045.28
2023-03-06T07:29:25.410Z,96051.19
2023-03-06T07:32:12.409Z,96047.56
2023-03-06T07:35:18.770Z,96052.00
2023-03-06T07:38:06.158Z,96048.72
2023-03-06T07:40:53.020Z,96051.34
2023-03-06T07:43:44.181Z,96062.50
2023-03-06T07:46:31.144Z,96068.56
2023-03-06T07:49:18.221Z,96064.16
2023-03-06T07:55:23.782Z,96064.16
2023-03-06T07:58:10.577Z,96066.63
2023-03-06T08:00:57.381Z,96057.09
2023-03-06T08:03:44.755Z,96057.91
2023-03-06T08:06:32.344Z,96060.53
2023-03-06T08:09:19.120Z,96058.06
2023-03-06T08:12:08.124Z,96059.88
2023-03-06T08:14:55.036Z,96052.50
2023-03-06T08:17:41.840Z,96052.31
2023-03-06T08:20:28.635Z,96052.19
2023-03-06T08:23:15.423Z,96053.00
2023-03-06T08:26:05.424Z,96051.34
2023-03-06T08:28:53.699Z,96060.03
2023-03-06T08:31:42.588Z,96055.13
2023-03-06T08:34:29.443Z,96059.38
2023-03-06T08:37:16.266Z,96068.06
2023-03-06T08:40:06.697Z,96061.34
2023-03-06T08:42:53.446Z,96062.66
2023-03-06T08:45:40.334Z,96064.31
2023-03-06T08:48:27.264Z,96067.59
2023-03-06T08:51:16.566Z,96064.81
2023-03-06T08:54:03.334Z,96060.38
2023-03-06T08:56:50.107Z,96071.03
2023-03-06T08:59:36.941Z,96076.13
2023-03-06T09:02:23.761Z,96063.00
2023-03-06T09:05:10.917Z,96069.88
2023-03-06T09:07:57.768Z,96054.97
2023-03-06T09:10:48.249Z,96072.19
2023-03-06T09:13:35.563Z,96068.75
2023-03-06T09:16:22.831Z,96073.00
2023-03-06T09:19:10.259Z,96065.97
2023-03-06T09:21:57.891Z,96069.41
2023-03-06T09:24:47.712Z,96070.06
2023-03-06T09:27:34.666Z,96076.81
2023-03-06T09:30:21.463Z,96075.00
2023-03-06T09:33:08.263Z,96067.13
2023-03-06T09:35:58.592Z,96069.44
2023-03-06T09:38:47.775Z,96070.25
2023-03-06T09:41:37.120Z,96072.53
2023-03-06T09:44:27.592Z,96074.19
2023-03-06T09:47:50.461Z,96074.84
2023-03-06T09:51:01.454Z,96070.41
2023-03-06T09:53:52.630Z,96067.63
2023-03-06T09:56:49.485Z,96065.00
2023-03-06T09:59:36.400Z,96048.59
2023-03-06T10:03:04.259Z,96061.72
2023-03-06T10:05:58.027Z,96060.59
2023-03-06T10:09:17.570Z,96057.78
2023-03-06T10:12:06.708Z,96056.66
2023-03-06T10:15:02.706Z,96044.16
2023-03-06T10:17:49.962Z,96050.91
2023-03-06T10:21:00.955Z,96042.88
2023-03-06T10:23:58.148Z,96040.06
2023-03-06T10:26:49.890Z,96051.88
2023-03-06T10:30:01.711Z,96026.63
2023-03-06T10:33:17.384Z,96035.00
2023-03-06T10:36:07.040Z,96026.13
2023-03-06T10:38:55.733Z,96024.78
2023-03-06T10:41:43.312Z,96032.53
2023-03-06T10:44:31.398Z,96029.56
2023-03-06T10:47:28.566Z,96012.34
2023-03-06T10:50:24.265Z,96017.75
2023-03-06T10:53:31.355Z,96009.50
2023-03-06T10:56:40.534Z,96030.19
2023-03-06T10:59:29.234Z,96019.34
2023-03-06T11:02:26.226Z,96011.66
2023-03-06T11:05:22.305Z,96021.66
2023-03-06T11:08:21.641Z,96023.16
2023-03-06T11:11:09.533Z,96016.72
2023-03-06T11:13:58.753Z,96013.13
2023-03-06T11:16:59.569Z,96020.66
2023-03-06T11:19:46.382Z,96016.88
2023-03-06T11:22:34.226Z,96016.72
2023-03-06T11:29:03.350Z,96000.09
2023-03-06T11:32:09.457Z,96004.19
2023-03-06T11:35:04.929Z,96002.03
2023-03-06T11:38:11.129Z,96004.50
2023-03-06T11:41:00.414Z,95997.13
2023-03-06T11:43:47.078Z,95991.53
2023-03-06T11:46:59.348Z,95991.19
2023-03-06T11:49:55.326Z,95983.31
2023-03-06T11:52:55.518Z,95974.41
2023-03-06T11:55:54.689Z,95982.44
2023-03-06T11:58:53.758Z,95980.44
2023-03-06T12:02:05.033Z,95979.97
2023-03-06T12:05:10.193Z,95968.25
2023-03-06T12:08:21.286Z,95970.38
2023-03-06T12:14:20.121Z,95962.78
2023-03-06T12:17:35.065Z,95958.00
2023-03-06T12:20:42.857Z,95958.50
2023-03-06T12:23:52.112Z,95954.69
2023-03-06T12:26:41.791Z,95952.69
2023-03-06T12:29:39.496Z,95951.69
2023-03-06T12:32:46.428Z,95946.75
2023-03-06T12:35:51.754Z,95956.13
2023-03-06T12:39:02.203Z,95966.28
2023-03-06T12:42:23.400Z,95959.03
2023-03-06T12:45:41.470Z,95965.78
2023-03-06T12:48:33.265Z,95968.03
2023-03-06T12:51:20.625Z,95973.94
2023-03-06T12:54:09.471Z,95978.06
2023-03-06T12:56:57.753Z,95970.16
2023-03-06T12:59:47.943Z,95971.44
2023-03-06T13:02:56.767Z,95960.56
2023-03-06T13:06:08.174Z,95959.38
2023-03-06T13:09:15.349Z,95953.78
2023-03-06T13:12:11.206Z,95951.97
2023-03-06T13:15:00.481Z,95946.53
2023-03-06T13:17:47.207Z,95947.16
2023-03-06T13:20:44.446Z,95947.81
2023-03-06T13:23:37.322Z,95951.06
2023-03-06T13:26:24.071Z,95944.84
2023-03-06T13:29:35.845Z,95942.31
2023-03-06T13:32:30.060Z,95940.97
2023-03-06T13:35:32.244Z,95938.47
2023-03-06T13:38:36.514Z,95942.84
2023-03-06T13:41:23.217Z,95947.22
2023-03-06T13:44:25.234Z,95942.03
2023-03-06T13:47:35.653Z,95931.78
2023-03-06T13:50:43.192Z,95938.97
2023-03-06T13:54:06.730Z,95942.69
2023-03-06T13:57:15.993Z,95940.34
2023-03-06T14:00:18.943Z,95942.59
2023-03-06T14:03:18.752Z,95937.78
2023-03-06T14:06:37.338Z,95932.97
2023-03-06T14:09:30.461Z,95945.78
2023-03-06T14:12:19.126Z,95937.53
2023-03-06T14:15:17.118Z,95926.63
2023-03-06T14:18:08.058Z,95934.19
2023-03-06T14:20:57.900Z,95937.28
2023-03-06T14:23:49.559Z,95930.63
2023-03-06T14:26:44.070Z,95934.53
2023-03-06T14:29:33.008Z,95931.72
2023-03-06T14:32:21.732Z,95925.72
2023-03-06T14:35:20.276Z,95930.63
2023-03-06T14:38:13.520Z,95924.34
2023-03-06T14:41:07.897Z,95930.06
2023-03-06T14:44:08.414Z,95919.97
2023-03-06T14:52:12.431Z,95921.22
2023-03-06T14:55:43.179Z,95928.63
2023-03-06T15:03:50.637Z,95907.69
2023-03-06T15:07:27.303Z,95911.88
2023-03-06T15:13:27.565Z,95898.03
2023-03-06T15:16:43.561Z,95912.75
2023-03-06T15:20:06.216Z,95910.50
2023-03-06T15:22:59.574Z,95918.84
2023-03-06T15:32:42.657Z,95918.13
2023-03-06T15:35:30.577Z,95923.00
2023-03-06T15:42:20.240Z,95903.47
2023-03-06T15:45:16.032Z,95919.81
2023-03-06T15:48:09.070Z,95913.53
2023-03-06T15:50:58.641Z,95915.97
2023-03-06T15:55:54.822Z,95894.03
2023-03-06T15:58:47.343Z,95894.66
2023-03-06T16:01:36.207Z,95897.59
2023-03-06T16:04:26.109Z,95906.84
2023-03-06T16:07:15.774Z,95914.03
2023-03-06T16:10:03.557Z,95913.53
2023-03-06T16:12:59.587Z,95901.66
2023-03-06T16:15:51.733Z,95912.22
2023-03-06T16:18:38.737Z,95906.84
2023-03-06T16:21:28.525Z,95905.59
2023-03-06T16:24:17.625Z,95914.09
2023-03-06T16:27:05.112Z,95912.06
2023-03-06T16:29:56.853Z,95907.31
2023-03-06T16:32:48.400Z,95928.72
2023-03-06T16:35:38.261Z,95912.25
2023-03-06T16:38:33.542Z,95906.50
2023-03-06T16:41:23.210Z,95923.25
2023-03-06T16:44:12.815Z,95916.72
2023-03-06T16:47:01.050Z,95919.97
2023-03-06T16:49:52.098Z,95915.91
2023-03-06T16:52:44.557Z,95916.72
2023-03-06T16:55:32.225Z,95911.44
2023-03-06T16:58:28.123Z,95931.78
2023-03-06T17:01:20.159Z,95921.81
2023-03-06T17:04:33.359Z,95926.91
2023-03-06T17:07:29.263Z,95935.00
2023-03-06T17:10:18.856Z,95951.38
2023-03-06T17:13:07.643Z,95953.69
2023-03-06T17:16:01.638Z,95960.38
2023-03-06T17:18:50.044Z,95953.47
2023-03-06T17:21:38.607Z,95972.41
2023-03-06T17:24:30.440Z,95967.31
2023-03-06T17:27:21.670Z,95968.94
2023-03-06T17:30:12.028Z,95965.03
2023-03-06T17:32:59.019Z,95977.69
2023-03-06T17:35:45.882Z,95971.34
2023-03-06T17:38:38.731Z,95977.69
2023-03-06T17:41:27.029Z,95978.69
2023-03-06T17:44:16.443Z,95982.50
2023-03-06T17:47:11.079Z,95990.69
2023-03-06T17:49:58.043Z,95991.50
2023-03-06T17:52:45.902Z,95994.78
2023-03-06T17:55:32.793Z,95994.16
2023-03-06T17:58:19.778Z,95994.16
2023-03-06T18:01:16.012Z,95991.88
2023-03-06T18:04:03.832Z,95995.34
2023-03-06T18:06:50.641Z,96003.50
2023-03-06T18:09:37.617Z,95995.78
2023-03-06T18:12:24.562Z,95994.53
2023-03-06T18:15:11.638Z,95987.22
2023-03-06T18:18:03.987Z,95994.53
2023-03-06T18:20:55.022Z,95989.41
2023-03-06T18:23:42.162Z,95996.16
2023-03-06T18:26:34.136Z,95999.81
2023-03-06T18:29:21.022Z,95994.53
2023-03-06T18:32:10.891Z,95991.56
2023-03-06T18:35:08.087Z,95996.72
2023-03-06T18:37:55.417Z,95997.03
2023-03-06T18:40:50.500Z,95997.41
2023-03-06T18:43:37.684Z,96007.78
2023-03-06T18:46:25.975Z,95995.59
2023-03-06T18:49:23.313Z,96000.88
2023-03-06T18:52:19.673Z,95996.16
2023-03-06T18:55:06.659Z,95993.50
2023-03-06T18:57:53.590Z,96002.69
2023-03-06T19:00:40.619Z,95999.78
2023-03-06T19:03:31.019Z,95994.06
2023-03-06T19:06:27.870Z,96004.63
2023-03-06T19:09:51.676Z,95999.72
2023-03-06T19:13:21.085Z,96010.50
2023-03-06T19:16:33.584Z,96002.53
2023-03-06T19:22:43.438Z,96010.25
2023-03-06T19:25:38.848Z,96009.09
2023-03-06T19:32:19.058Z,96002.72
2023-03-06T19:35:39.682Z,96001.09
2023-03-06T19:38:27.030Z,96001.69
2023-03-06T19:41:19.947Z,96011.06
2023-03-06T19:44:29.046Z,96001.69
2023-03-06T19:47:18.231Z,96005.53
2023-03-06T19:50:54.101Z,96002.91
2023-03-06T19:53:46.189Z,96014.06
2023-03-06T19:56:56.834Z,96010.25
2023-03-06T19:59:58.480Z,95998.81
2023-03-06T20:02:45.631Z,96005.91
2023-03-06T20:05:33.062Z,96006.34
2023-03-06T20:08:28.267Z,96014.88
2023-03-06T20:11:35.216Z,96000.63
2023-03-06T20:14:46.795Z,96013.25
2023-03-06T20:17:48.531Z,95997.34
2023-03-06T20:20:41.365Z,96003.44
2023-03-06T20:23:33.708Z,96014.63
2023-03-06T20:26:29.033Z,96002.97
2023-03-06T20:29:22.259Z,96003.44
2023-03-06T20:32:14.933Z,95997.09
2023-03-06T20:35:02.892Z,95996.88
2023-03-06T20:37:57.854Z,96000.19
2023-03-06T20:40:44.982Z,95999.72
2023-03-06T20:43:31.911Z,96015.81
2023-03-06T20:46:20.905Z,96004.81
2023-03-06T20:49:08.442Z,96009.63
2023-03-06T20:51:57.841Z,96006.19
2023-03-06T20:54:50.415Z,96007.00
2023-03-06T20:57:53.507Z,96002.53
2023-03-06T21:00:41.446Z,96000.53
2023-03-06T21:03:29.255Z,95994.81
2023-03-06T21:06:16.846Z,95992.81
2023-03-06T21:09:07.727Z,95984.97
2023-03-06T21:11:54.825Z,95985.81
2023-03-06T21:14:48.923Z,95985.19
2023-03-06T21:17:38.907Z,95985.19
2023-03-06T21:20:28.342Z,95984.97
2023-03-06T21:23:23.002Z,95973.97
2023-03-06T21:26:31.274Z,95970.72
2023-03-06T21:29:24.723Z,95965.44
2023-03-06T21:32:14.282Z,95971.53
2023-03-06T21:35:01.244Z,95969.91
2023-03-06T21:37:56.093Z,95976.63
2023-03-06T21:40:43.123Z,95970.53
2023-03-06T21:43:29.931Z,95965.00
2023-03-06T21:46:16.935Z,95972.72
2023-03-06T21:49:07.692Z,95967.63
2023-03-06T21:52:00.128Z,95961.91
2023-03-06T21:54:51.004Z,95964.00
2023-03-06T21:57:37.908Z,95954.81
2023-03-06T22:00:27.164Z,95957.25
2023-03-06T22:03:16.206Z,95963.38
2023-03-06T22:06:19.240Z,95954.34
2023-03-06T22:09:06.932Z,95960.28
2023-03-06T22:12:00.322Z,95952.06
2023-03-06T22:14:47.620Z,95954.34
2023-03-06T22:17:34.509Z,95940.72
2023-03-06T22:20:21.565Z,95943.56
2023-03-06T22:26:12.475Z,95925.00
2023-03-06T22:28:59.524Z,95931.72
2023-03-06T22:31:49.945Z,95932.09
2023-03-06T22:34:36.825Z,95937.19
2023-03-06T22:37:23.715Z,95935.19
2023-03-06T22:40:13.484Z,95934.72
2023-03-06T22:43:03.570Z,95928.19
2023-03-06T22:45:54.132Z,95928.19
2023-03-06T22:48:44.496Z,95929.81
2023-03-06T22:51:31.784Z,95933.72
2023-03-06T22:54:18.628Z,95931.28
2023-03-06T22:57:05.785Z,95921.63
2023-03-06T22:59:52.653Z,95931.44
2023-03-06T23:02:39.612Z,95931.34
2023-03-06T23:05:29.578Z,95925.91
2023-03-06T23:08:23.399Z,95918.38
2023-03-06T23:11:12.914Z,95938.91
2023-03-06T23:14:00.351Z,95926.28
2023-03-06T23:16:47.317Z,95927.09
2023-03-06T23:19:34.187Z,95934.00
2023-03-06T23:22:26.746Z,95934.00
2023-03-06T23:25:13.639Z,95922.19
2023-03-06T23:28:01.750Z,95925.81
2023-03-06T23:30:49.722Z,95929.47
2023-03-06T23:33:38.744Z,95920.91
2023-03-06T23:36:25.953Z,95929.28
2023-03-06T23:39:13.355Z,95923.53
2023-03-06T23:42:01.475Z,95926.84
2023-03-06T23:44:50.825Z,95915.00
2023-03-06T23:47:37.648Z,95920.09
2023-03-06T23:50:26.058Z,95917.81
2023-03-06T23:53:13.426Z,95918.00
2023-03-06T23:56:02.283Z,95920.00
2023-03-06T23:58:49.238Z,95913.25
